Time;durP1;ratioP1;P1;durP2;ratioP2;P2;SDS_P1;SDS_P2;PMS_P1;PMS_P2;Temp;Humidity;BMP_temperature;BMP_pressure;BME280_temperature;BME280_humidity;BME280_pressure;Samples;Min_cycle;Max_cycle;Signal;HPM_P1;HPM_P2
2022/01/30 09:55:45;;;;;;;8.95;2.58;;;25.80;75.70;;;;;;5086148;28;20040;-73
2022/01/30 09:58:12;;;;;;;8.73;2.00;;;25.80;75.80;;;;;;5070265;28;20050;-74
2022/01/30 10:00:39;;;;;;;7.95;2.67;;;25.80;75.50;;;;;;5070594;28;20030;-73
2022/01/30 10:03:06;;;;;;;6.80;2.20;;;25.80;75.80;;;;;;5079987;28;20031;-74
2022/01/30 10:05:36;;;;;;;10.60;2.60;;;25.80;76.00;;;;;;5090934;28;20400;-74
2022/01/30 10:08:04;;;;;;;11.27;2.45;;;25.80;76.20;;;;;;5091278;28;20754;-74
2022/01/30 10:10:34;;;;;;;10.50;2.47;;;25.80;76.10;;;;;;5092846;28;20038;-74
2022/01/30 10:13:02;;;;;;;14.57;3.08;;;25.80;76.10;;;;;;5079263;28;20066;-74
2022/01/30 10:15:29;;;;;;;8.98;2.28;;;25.80;76.20;;;;;;5110427;28;20596;-74
2022/01/30 10:17:57;;;;;;;9.70;2.47;;;25.70;76.60;;;;;;5078618;28;20497;-73
2022/01/30 10:20:25;;;;;;;12.93;2.63;;;25.70;76.80;;;;;;5061245;28;20046;-74
2022/01/30 10:22:57;;;;;;;13.73;2.72;;;25.70;76.30;;;;;;5073553;28;20025;-74
2022/01/30 10:25:28;;;;;;;8.98;2.25;;;25.70;76.20;;;;;;5078323;28;20460;-74
2022/01/30 10:28:20;;;;;;;8.05;2.47;;;25.70;76.40;;;;;;5082611;28;20026;-74
2022/01/30 10:30:52;;;;;;;7.47;1.92;;;25.80;76.40;;;;;;5095034;28;20502;-74
2022/01/30 10:33:37;;;;;;;9.70;2.60;;;25.70;76.70;;;;;;5094777;28;20043;-73
2022/01/30 10:36:04;;;;;;;13.27;3.38;;;25.70;77.00;;;;;;5085972;28;20220;-73
2022/01/30 10:38:38;;;;;;;9.63;3.03;;;25.60;76.90;;;;;;5094213;28;20035;-74
2022/01/30 10:41:17;;;;;;;8.20;2.33;;;25.60;77.00;;;;;;5081376;28;20034;-74
2022/01/30 10:43:54;;;;;;;8.68;2.30;;;25.60;77.30;;;;;;5095497;28;20517;-74
2022/01/30 10:46:32;;;;;;;7.38;2.35;;;25.60;77.00;;;;;;5102312;28;20532;-73
2022/01/30 10:49:07;;;;;;;11.35;2.67;;;25.60;76.90;;;;;;5075012;28;20039;-74
2022/01/30 10:51:34;;;;;;;15.63;3.25;;;25.60;76.80;;;;;;5060670;28;20060;-74
2022/01/30 10:54:09;;;;;;;11.10;3.17;;;25.60;76.50;;;;;;5080557;27;20047;-75
2022/01/30 10:56:37;;;;;;;11.85;2.38;;;25.60;76.60;;;;;;5115721;27;20078;-74
2022/01/30 10:59:20;;;;;;;10.30;2.70;;;25.50;76.40;;;;;;5113882;27;20118;-74
2022/01/30 11:01:49;;;;;;;10.27;3.15;;;25.60;76.60;;;;;;5120415;27;20027;-74
2022/01/30 11:04:30;;;;;;;15.03;2.87;;;25.60;76.50;;;;;;5115950;27;20042;-75
2022/01/30 11:07:01;;;;;;;10.88;2.65;;;25.50;76.70;;;;;;5095336;28;20283;-74
2022/01/30 11:09:35;;;;;;;7.68;2.53;;;25.60;76.30;;;;;;5114211;27;20084;-75
2022/01/30 11:12:06;;;;;;;9.10;2.10;;;25.60;76.80;;;;;;5114943;27;20180;-74
2022/01/30 11:15:15;;;;;;;9.82;2.25;;;25.50;76.70;;;;;;5112064;27;20390;-76
2022/01/30 11:17:23;;;;;;;7.32;2.08;;;25.40;77.00;;;;;;5112904;28;20047;-74
2022/01/30 11:19:54;;;;;;;10.90;2.50;;;25.40;77.10;;;;;;5086336;28;20038;-74
2022/01/30 11:22:22;;;;;;;6.72;2.25;;;25.40;77.20;;;;;;5105049;27;20031;-74
2022/01/30 11:25:07;;;;;;;6.47;2.05;;;25.40;77.20;;;;;;5096109;27;20035;-74
2022/01/30 11:27:35;;;;;;;6.90;2.00;;;25.40;77.10;;;;;;5115184;27;20434;-74
2022/01/30 11:30:02;;;;;;;9.48;2.10;;;25.40;77.20;;;;;;5103131;28;20063;-74
2022/01/30 11:32:29;;;;;;;6.85;1.85;;;25.40;77.30;;;;;;5121415;27;20039;-75
2022/01/30 11:39:48;;;;;;;10.70;2.20;;;25.40;77.40;;;;;;5118765;27;20039;-73
2022/01/30 11:42:23;;;;;;;11.90;2.45;;;25.30;77.40;;;;;;5072272;28;20052;-74
2022/01/30 11:45:11;;;;;;;10.13;2.50;;;25.40;77.40;;;;;;5086550;28;20067;-73
2022/01/30 11:47:49;;;;;;;10.13;2.33;;;25.30;77.20;;;;;;5101155;28;20059;-73
2022/01/30 11:50:21;;;;;;;11.10;2.30;;;25.30;77.20;;;;;;5106080;28;20107;-74
2022/01/30 11:52:54;;;;;;;8.88;2.03;;;25.30;77.20;;;;;;5077875;28;20035;-75
2022/01/30 11:55:56;;;;;;;8.82;2.05;;;25.30;77.60;;;;;;5080642;28;20043;-74
2022/01/30 11:58:43;;;;;;;9.02;2.40;;;25.30;77.80;;;;;;5093836;28;20398;-74
2022/01/30 12:01:25;;;;;;;11.38;2.90;;;25.30;77.80;;;;;;5090835;28;20047;-75
2022/01/30 12:04:00;;;;;;;7.95;2.08;;;25.30;77.90;;;;;;5107646;28;20059;-74
2022/01/30 12:06:28;;;;;;;9.88;2.45;;;25.20;77.90;;;;;;5094244;28;20431;-74
2022/01/30 12:08:56;;;;;;;11.75;2.60;;;25.20;77.50;;;;;;5098960;28;20115;-75
2022/01/30 12:11:39;;;;;;;8.68;2.00;;;25.20;77.80;;;;;;5084205;28;20040;-75
2022/01/30 12:14:11;;;;;;;5.70;1.75;;;25.20;77.90;;;;;;5093031;28;20115;-75
2022/01/30 12:17:12;;;;;;;10.55;2.10;;;25.10;77.90;;;;;;5077971;28;20040;-74
2022/01/30 12:19:41;;;;;;;9.65;2.08;;;25.20;78.10;;;;;;5091006;28;20040;-74
2022/01/30 12:22:18;;;;;;;8.32;2.13;;;25.20;78.20;;;;;;5093526;28;20043;-75
2022/01/30 12:24:46;;;;;;;11.63;2.20;;;25.20;78.10;;;;;;5083273;28;20059;-74
2022/01/30 12:27:14;;;;;;;11.23;1.92;;;25.20;78.40;;;;;;5098350;28;20470;-74
2022/01/30 12:29:46;;;;;;;11.00;2.70;;;25.20;78.20;;;;;;5070665;28;20554;-72
2022/01/30 12:32:25;;;;;;;10.88;2.35;;;25.10;78.40;;;;;;5075318;28;20039;-74
2022/01/30 12:34:55;;;;;;;11.70;2.50;;;25.20;78.20;;;;;;5091693;28;20028;-74
2022/01/30 12:37:26;;;;;;;13.02;3.08;;;25.20;78.30;;;;;;5101196;28;20048;-75
2022/01/30 12:39:54;;;;;;;10.25;2.42;;;25.20;78.30;;;;;;5094016;27;20035;-74
2022/01/30 12:42:22;;;;;;;10.27;1.92;;;25.10;78.40;;;;;;5076835;27;20134;-74
2022/01/30 12:44:49;;;;;;;8.68;2.50;;;25.10;78.70;;;;;;5105058;28;20034;-74
2022/01/30 12:47:17;;;;;;;15.32;3.03;;;25.10;78.70;;;;;;5085138;28;20036;-75
2022/01/30 12:49:51;;;;;;;10.15;2.42;;;25.10;78.30;;;;;;5093070;27;20031;-74
2022/01/30 12:52:32;;;;;;;9.70;2.25;;;25.10;78.40;;;;;;5094905;28;20122;-75
2022/01/30 12:55:06;;;;;;;17.63;2.72;;;25.10;78.30;;;;;;5119365;27;20042;-74
2022/01/30 12:57:33;;;;;;;23.73;2.90;;;25.00;78.40;;;;;;5103285;28;20492;-75
2022/01/30 13:00:01;;;;;;;7.97;1.90;;;25.00;78.50;;;;;;5111204;27;20488;-75
2022/01/30 13:02:29;;;;;;;9.07;2.17;;;25.00;78.50;;;;;;5096728;27;20046;-75
2022/01/30 13:05:03;;;;;;;12.88;2.65;;;25.00;78.70;;;;;;5111755;27;20173;-74
2022/01/30 13:07:31;;;;;;;13.63;2.20;;;25.00;78.50;;;;;;5114684;27;20031;-74
2022/01/30 13:10:12;;;;;;;7.97;2.22;;;25.00;78.30;;;;;;5112728;27;20027;-74
2022/01/30 13:12:43;;;;;;;9.60;2.33;;;24.90;78.50;;;;;;5105353;27;20045;-74
2022/01/30 13:15:12;;;;;;;11.10;2.45;;;24.90;78.60;;;;;;5131694;27;20031;-75
2022/01/30 13:17:39;;;;;;;12.50;2.40;;;24.80;78.50;;;;;;5109490;27;20043;-74
2022/01/30 13:20:08;;;;;;;9.23;2.17;;;24.90;78.80;;;;;;5094018;28;20033;-75
2022/01/30 13:22:40;;;;;;;13.40;2.28;;;24.80;78.90;;;;;;5106146;27;20039;-75
2022/01/30 13:25:15;;;;;;;14.63;2.45;;;24.90;79.00;;;;;;5111297;27;20045;-75
2022/01/30 13:27:43;;;;;;;14.18;3.25;;;24.90;79.00;;;;;;5103012;28;20044;-74
2022/01/30 13:30:11;;;;;;;14.48;2.63;;;24.80;79.10;;;;;;5111006;28;20031;-75
2022/01/30 13:32:41;;;;;;;8.55;2.13;;;24.80;79.20;;;;;;5117623;27;20043;-74
2022/01/30 13:35:15;;;;;;;9.82;2.10;;;24.80;79.40;;;;;;5111434;28;20027;-75
2022/01/30 13:37:43;;;;;;;8.38;2.25;;;24.80;79.60;;;;;;5114154;27;20040;-74
2022/01/30 13:40:24;;;;;;;8.32;2.22;;;24.80;79.60;;;;;;5100573;28;20031;-75
2022/01/30 13:42:59;;;;;;;9.38;2.15;;;24.80;79.50;;;;;;5131290;28;20116;-74
2022/01/30 13:48:14;;;;;;;12.68;2.45;;;24.70;79.60;;;;;;5110424;28;20035;-75
2022/01/30 13:50:53;;;;;;;9.65;2.30;;;24.70;79.70;;;;;;5115421;28;20019;-74
2022/01/30 13:53:20;;;;;;;10.85;2.40;;;24.70;79.60;;;;;;5105932;28;20028;-74
2022/01/30 13:56:11;;;;;;;13.27;2.72;;;24.70;79.30;;;;;;5118884;28;20019;-74
2022/01/30 13:58:41;;;;;;;15.77;2.80;;;24.60;79.50;;;;;;5130494;28;20047;-73
2022/01/30 14:01:33;;;;;;;13.27;2.50;;;24.60;79.60;;;;;;5124688;28;20481;-74
2022/01/30 14:04:18;;;;;;;8.52;2.42;;;24.60;79.80;;;;;;5130713;28;20035;-74
2022/01/30 14:06:49;;;;;;;9.30;2.53;;;24.60;80.10;;;;;;5091071;28;20043;-74
2022/01/30 14:09:24;;;;;;;8.50;2.13;;;24.60;80.00;;;;;;5125101;28;20035;-75
2022/01/30 14:12:02;;;;;;;8.68;2.63;;;24.60;80.00;;;;;;5111165;28;20067;-75
2022/01/30 14:14:29;;;;;;;14.05;2.63;;;24.50;80.00;;;;;;5092574;28;20043;-75
2022/01/30 14:17:01;;;;;;;7.70;2.30;;;24.50;80.20;;;;;;5101222;28;20039;-75
2022/01/30 14:19:33;;;;;;;10.02;2.10;;;24.50;80.10;;;;;;5105652;22;20048;-68
2022/01/30 14:22:28;;;;;;;13.05;2.65;;;24.50;80.30;;;;;;5089534;28;20130;-68
2022/01/30 14:24:57;;;;;;;7.40;1.98;;;24.40;80.40;;;;;;5078888;28;20475;-68
2022/01/30 14:27:25;;;;;;;8.23;2.85;;;24.40;80.50;;;;;;5066833;28;20039;-68
2022/01/30 14:29:59;;;;;;;11.23;2.65;;;24.40;80.50;;;;;;5083404;28;20024;-68
2022/01/30 14:32:36;;;;;;;9.40;2.40;;;24.40;80.60;;;;;;5051070;28;20085;-68
2022/01/30 14:35:08;;;;;;;13.43;2.22;;;24.30;80.60;;;;;;5108503;28;20043;-68
2022/01/30 14:37:36;;;;;;;11.05;2.50;;;24.40;80.40;;;;;;5092484;28;20059;-68
2022/01/30 14:40:07;;;;;;;14.30;2.75;;;24.40;80.30;;;;;;5076695;28;20089;-68
2022/01/30 14:42:35;;;;;;;10.60;1.92;;;24.30;80.60;;;;;;5074682;28;20036;-68
2022/01/30 14:45:02;;;;;;;12.40;3.10;;;24.40;80.50;;;;;;5090578;28;20131;-68
2022/01/30 14:47:29;;;;;;;17.80;5.50;;;24.40;80.70;;;;;;5105639;28;20032;-68
2022/01/30 14:49:57;;;;;;;9.50;2.70;;;24.40;80.30;;;;;;5096522;28;20078;-68
2022/01/30 14:52:24;;;;;;;11.55;2.80;;;24.40;80.50;;;;;;5080477;28;20036;-68
2022/01/30 14:54:54;;;;;;;8.20;2.10;;;24.40;80.50;;;;;;5100681;28;20058;-68
2022/01/30 14:57:24;;;;;;;8.88;2.20;;;24.40;80.30;;;;;;5093366;28;20082;-68
2022/01/30 14:59:51;;;;;;;7.93;2.00;;;24.40;80.50;;;;;;5085562;28;20389;-68
2022/01/30 15:02:18;;;;;;;9.68;2.83;;;24.40;80.60;;;;;;5090401;28;20039;-68
2022/01/30 15:04:46;;;;;;;12.70;2.30;;;24.40;80.50;;;;;;5093466;28;20040;-68
2022/01/30 15:07:14;;;;;;;8.73;2.45;;;24.30;80.90;;;;;;5083080;28;20173;-68
2022/01/30 15:09:42;;;;;;;12.10;2.45;;;24.30;80.70;;;;;;5091538;28;20036;-68
2022/01/30 15:12:13;;;;;;;11.02;2.10;;;24.30;80.90;;;;;;5085471;28;20033;-68
2022/01/30 15:14:41;;;;;;;11.10;2.72;;;24.20;80.80;;;;;;5082740;28;20028;-68
2022/01/30 15:17:18;;;;;;;15.05;2.92;;;24.20;80.80;;;;;;5062311;28;20033;-68
2022/01/30 15:19:46;;;;;;;11.02;2.33;;;24.20;80.90;;;;;;5092909;28;20052;-68
2022/01/30 15:22:14;;;;;;;10.82;2.03;;;24.20;81.00;;;;;;5100033;28;20036;-68
2022/01/30 15:24:41;;;;;;;8.57;2.35;;;24.20;81.20;;;;;;5112665;28;20032;-68
2022/01/30 15:27:08;;;;;;;7.95;2.10;;;24.20;81.10;;;;;;5095719;28;20058;-68
2022/01/30 15:29:35;;;;;;;7.50;2.33;;;24.10;81.30;;;;;;5087685;28;20034;-68
2022/01/30 15:32:03;;;;;;;9.32;2.15;;;24.20;81.30;;;;;;5100562;28;20119;-68
2022/01/30 15:34:30;;;;;;;7.60;1.98;;;24.20;81.30;;;;;;5098479;28;20032;-68
2022/01/30 15:36:57;;;;;;;8.05;2.30;;;24.20;81.20;;;;;;5101876;28;20107;-68
2022/01/30 15:39:24;;;;;;;13.68;2.80;;;24.10;81.30;;;;;;5082028;28;20118;-68
2022/01/30 15:41:54;;;;;;;9.57;2.28;;;24.10;81.40;;;;;;5104911;28;20028;-68
2022/01/30 15:44:22;;;;;;;11.57;2.30;;;24.10;81.70;;;;;;5092595;28;20044;-68
2022/01/30 15:49:34;;;;;;;8.00;2.15;;;24.10;81.60;;;;;;5095583;28;20089;-68
2022/01/30 15:52:01;;;;;;;8.93;2.10;;;24.10;81.70;;;;;;5090896;28;20114;-69
2022/01/30 15:54:28;;;;;;;8.05;1.88;;;24.10;81.80;;;;;;5107668;28;20036;-68
2022/01/30 15:56:56;;;;;;;11.52;2.28;;;24.10;81.80;;;;;;5104525;28;20490;-68
2022/01/30 15:59:23;;;;;;;11.45;2.58;;;24.00;81.90;;;;;;5112402;28;20477;-68
2022/01/30 16:01:51;;;;;;;7.85;2.00;;;24.00;82.10;;;;;;5108813;28;20039;-68
2022/01/30 16:04:18;;;;;;;9.85;2.33;;;24.00;82.00;;;;;;5110659;28;20089;-68
2022/01/30 16:06:45;;;;;;;13.25;2.45;;;23.90;82.30;;;;;;5086421;28;20100;-68
2022/01/30 16:09:16;;;;;;;10.88;2.05;;;24.00;82.50;;;;;;5091298;28;20044;-68
2022/01/30 21:25:15;;;;;;;10.65;2.22;;;24.60;80.50;;;;;;5072168;28;20433;-68
2022/01/30 21:27:42;;;;;;;11.40;3.20;;;24.70;80.50;;;;;;5102226;28;20493;-66
2022/01/30 21:30:10;;;;;;;8.45;1.88;;;24.80;80.30;;;;;;5091147;28;20051;-67
2022/01/30 21:32:37;;;;;;;8.52;2.22;;;24.80;80.10;;;;;;5102123;28;20080;-66
2022/01/30 21:35:05;;;;;;;7.40;2.08;;;25.00;80.20;;;;;;5110177;28;20039;-66
2022/01/30 21:37:32;;;;;;;8.85;2.22;;;25.10;80.50;;;;;;5109459;28;20058;-67
2022/01/30 21:39:59;;;;;;;13.25;3.00;;;25.20;80.80;;;;;;5111019;28;22065;-67
2022/01/30 21:42:26;;;;;;;12.25;2.90;;;25.30;79.50;;;;;;5103829;28;20483;-66
2022/01/30 21:44:55;;;;;;;10.02;2.42;;;25.50;79.90;;;;;;5093894;28;20036;-67
2022/01/30 21:47:23;;;;;;;16.05;3.50;;;25.50;78.80;;;;;;5094261;28;20024;-66
2022/01/30 21:49:52;;;;;;;11.60;3.30;;;25.60;77.80;;;;;;5092845;28;20032;-67
2022/01/30 21:52:25;;;;;;;11.50;2.73;;;25.60;78.00;;;;;;5110811;28;20393;-67
2022/01/30 21:54:53;;;;;;;8.70;2.80;;;25.70;78.00;;;;;;5108801;28;20271;-67
2022/01/30 21:57:20;;;;;;;15.70;2.97;;;25.70;77.90;;;;;;5083290;28;20427;-67
2022/01/30 21:59:47;;;;;;;9.50;3.25;;;25.60;77.20;;;;;;5109762;28;20370;-66
2022/01/30 22:02:14;;;;;;;12.35;3.28;;;25.50;77.60;;;;;;5090721;28;20420;-66
2022/01/30 22:04:42;;;;;;;19.92;4.40;;;25.50;77.90;;;;;;5088990;28;20035;-66
2022/01/30 22:07:09;;;;;;;12.63;5.40;;;25.70;78.30;;;;;;5115362;27;20028;-66
2022/01/30 22:09:36;;;;;;;10.13;4.03;;;25.80;77.30;;;;;;5099791;27;20032;-67
2022/01/30 22:12:15;;;;;;;16.08;4.13;;;25.80;76.70;;;;;;5108393;28;20040;-66
2022/01/30 22:15:04;;;;;;;7.75;2.70;;;25.90;76.80;;;;;;5097226;28;20115;-66
2022/01/30 22:17:31;;;;;;;9.38;2.72;;;26.00;76.30;;;;;;5088684;28;20382;-66
2022/01/30 22:19:59;;;;;;;11.40;3.33;;;26.00;76.10;;;;;;5076133;28;20036;-67
2022/01/30 22:22:27;;;;;;;8.35;2.90;;;26.10;76.20;;;;;;5114708;27;20489;-66
2022/01/30 22:56:47;;;;;;;8.80;2.65;;;26.70;74.00;;;;;;5056147;28;20458;-67
2022/01/30 22:59:14;;;;;;;9.40;4.53;;;26.80;72.80;;;;;;5061181;28;20077;-67
2022/01/30 23:01:41;;;;;;;8.73;3.20;;;26.70;72.70;;;;;;5076777;28;20032;-67
2022/01/30 23:04:08;;;;;;;11.82;4.22;;;26.70;73.00;;;;;;5073626;28;20068;-66
2022/01/30 23:06:36;;;;;;;8.18;2.70;;;26.70;73.40;;;;;;5071781;28;20016;-67
2022/01/30 23:09:03;;;;;;;12.02;2.15;;;26.80;72.70;;;;;;5054524;28;20490;-66
2022/01/30 23:11:30;;;;;;;4.90;1.80;;;26.80;72.50;;;;;;5072376;28;20524;-66
2022/01/30 23:13:58;;;;;;;6.85;1.58;;;26.80;71.50;;;;;;5037126;28;20032;-67
2022/01/30 23:16:25;;;;;;;4.95;1.70;;;26.70;71.80;;;;;;5054225;28;20448;-66
2022/01/30 23:18:52;;;;;;;17.17;4.90;;;26.50;72.20;;;;;;5059602;28;20402;-66
2022/01/30 23:21:19;;;;;;;10.23;4.15;;;26.50;72.60;;;;;;5054002;28;20509;-66
2022/01/30 23:23:48;;;;;;;5.30;2.25;;;26.40;73.10;;;;;;5053976;28;20063;-66
2022/01/30 23:26:17;;;;;;;6.75;2.05;;;26.40;73.10;;;;;;5071350;28;20505;-66
2022/01/30 23:28:44;;;;;;;8.52;2.25;;;26.40;73.40;;;;;;5058240;28;20036;-67
2022/01/30 23:31:11;;;;;;;6.82;2.00;;;26.40;73.70;;;;;;5071788;28;20044;-66
2022/01/30 23:33:38;;;;;;;6.35;2.15;;;26.40;73.90;;;;;;5072426;28;20043;-66
2022/01/30 23:36:06;;;;;;;6.30;2.00;;;26.40;73.80;;;;;;5072738;28;20032;-66
2022/01/30 23:38:33;;;;;;;9.98;3.45;;;26.40;73.90;;;;;;5075702;28;20052;-67
2022/01/30 23:41:02;;;;;;;15.55;4.28;;;26.40;74.20;;;;;;5071460;28;20036;-67
2022/01/30 23:43:31;;;;;;;7.15;2.58;;;26.40;74.60;;;;;;5067756;28;20048;-67
2022/01/30 23:45:58;;;;;;;5.18;1.90;;;26.50;74.70;;;;;;5045442;28;20032;-66
2022/01/30 23:48:26;;;;;;;5.03;2.00;;;26.40;73.90;;;;;;5062526;28;20048;-66
2022/01/30 23:50:53;;;;;;;5.80;2.08;;;26.40;73.90;;;;;;5076159;28;20119;-66
2022/01/30 23:53:20;;;;;;;5.63;2.35;;;26.40;74.30;;;;;;5074930;28;20162;-66
2022/01/30 23:55:48;;;;;;;6.45;2.38;;;26.50;74.30;;;;;;5077504;28;20416;-66
2022/01/30 23:58:17;;;;;;;5.55;2.20;;;26.50;74.10;;;;;;5092946;28;20091;-66
